Time;durP1;ratioP1;P1;durP2;ratioP2;P2;SDS_P1;SDS_P2;PMS_P1;PMS_P2;Temp;Humidity;BMP_temperature;BMP_pressure;BME280_temperature;BME280_humidity;BME280_pressure;Samples;Min_cycle;Max_cycle;Signal;HPM_P1;HPM_P2
2022/04/28 00:02:09;;;;;;;1.00;0.85;;;18.80;63.60;;;;;;5031972;28;20030;-70
2022/04/28 00:04:35;;;;;;;2.15;1.02;;;18.80;63.60;;;;;;5030729;28;20034;-69
2022/04/28 00:07:01;;;;;;;3.15;1.20;;;18.80;63.60;;;;;;5030773;28;20028;-69
2022/04/28 00:09:26;;;;;;;3.60;1.00;;;18.80;63.70;;;;;;5030903;28;20108;-70
2022/04/28 00:11:52;;;;;;;1.27;1.10;;;18.80;63.70;;;;;;5031771;28;20036;-70
2022/04/28 00:14:18;;;;;;;1.15;0.90;;;18.80;63.70;;;;;;5030721;28;20022;-69
2022/04/28 00:16:44;;;;;;;3.03;0.95;;;18.80;63.70;;;;;;5031802;28;20567;-69
2022/04/28 00:19:10;;;;;;;1.30;0.82;;;18.80;63.70;;;;;;5032095;28;20087;-69
2022/04/28 00:21:35;;;;;;;1.58;1.17;;;18.80;63.80;;;;;;5031850;28;20220;-69
2022/04/28 00:24:01;;;;;;;1.00;0.90;;;18.80;63.80;;;;;;5030734;28;20068;-69
2022/04/28 00:26:26;;;;;;;1.95;1.00;;;18.80;63.90;;;;;;5032003;28;20034;-69
2022/04/28 00:28:52;;;;;;;2.88;0.98;;;18.80;63.90;;;;;;5030364;28;20025;-69
2022/04/28 00:31:18;;;;;;;1.08;0.90;;;18.80;63.90;;;;;;5031860;28;20017;-69
2022/04/28 00:33:44;;;;;;;2.53;1.10;;;18.80;63.90;;;;;;5031858;28;20036;-69
2022/04/28 00:36:10;;;;;;;1.63;0.80;;;18.80;64.00;;;;;;5031811;28;20014;-69
2022/04/28 00:38:35;;;;;;;1.30;1.00;;;18.80;64.00;;;;;;5030617;28;20036;-69
2022/04/28 00:41:01;;;;;;;1.15;0.88;;;18.80;64.00;;;;;;5031379;28;20099;-69
2022/04/28 00:43:30;;;;;;;2.35;0.85;;;18.80;64.10;;;;;;5030518;28;20101;-69
2022/04/28 00:45:56;;;;;;;1.88;1.20;;;18.90;64.20;;;;;;5016538;28;20025;-69
2022/04/28 00:51:07;;;;;;;3.55;0.82;;;18.80;64.20;;;;;;5035211;28;20040;-69
2022/04/28 00:53:41;;;;;;;1.65;1.20;;;18.80;64.20;;;;;;5033714;28;20495;-69
2022/04/28 00:56:06;;;;;;;2.40;0.88;;;18.80;64.30;;;;;;5034044;28;20067;-69
2022/04/28 00:58:32;;;;;;;1.05;0.82;;;18.80;65.30;;;;;;5033820;28;20021;-69
2022/04/28 01:00:58;;;;;;;3.10;1.08;;;18.80;64.30;;;;;;5033894;28;20022;-69
2022/04/28 01:03:24;;;;;;;2.05;0.98;;;18.80;64.40;;;;;;5035040;28;20052;-69
2022/04/28 01:05:50;;;;;;;1.65;1.00;;;18.80;64.30;;;;;;5034824;28;20499;-69
2022/04/28 01:08:16;;;;;;;1.23;1.00;;;18.80;64.30;;;;;;5033820;28;20120;-69
2022/04/28 01:10:41;;;;;;;0.90;0.90;;;18.80;64.40;;;;;;5033751;28;20052;-69
2022/04/28 01:13:07;;;;;;;1.13;0.90;;;18.80;64.50;;;;;;5034533;28;20084;-69
2022/04/28 01:15:46;;;;;;;3.65;0.93;;;18.80;64.50;;;;;;5034978;28;20028;-69
2022/04/28 01:18:12;;;;;;;0.88;0.88;;;18.80;64.50;;;;;;5034803;28;20025;-69
2022/04/28 01:20:38;;;;;;;1.38;0.90;;;18.80;64.60;;;;;;5033484;28;20036;-69
2022/04/28 01:23:04;;;;;;;1.00;0.90;;;18.70;64.50;;;;;;5034428;28;20034;-69
2022/04/28 01:25:30;;;;;;;2.35;0.88;;;18.70;64.50;;;;;;5033513;28;20435;-69
2022/04/28 01:27:55;;;;;;;2.03;0.93;;;18.70;64.50;;;;;;5033123;28;20033;-69
2022/04/28 01:30:21;;;;;;;1.08;0.98;;;18.80;64.60;;;;;;5033328;28;20029;-69
2022/04/28 01:32:46;;;;;;;0.80;0.80;;;18.70;64.60;;;;;;5034436;28;20412;-69
2022/04/28 01:35:12;;;;;;;0.80;0.80;;;18.70;64.60;;;;;;5033177;28;20400;-69
2022/04/28 01:37:38;;;;;;;1.75;1.00;;;18.70;64.60;;;;;;5034533;28;20017;-69
2022/04/28 01:40:06;;;;;;;0.90;0.85;;;18.70;64.70;;;;;;5034086;28;20049;-69
2022/04/28 01:42:32;;;;;;;2.75;1.05;;;18.70;64.70;;;;;;5034175;28;20026;-70
2022/04/28 01:44:57;;;;;;;0.95;0.93;;;18.70;64.70;;;;;;5032838;28;20101;-69
2022/04/28 01:47:24;;;;;;;1.13;0.68;;;18.70;64.70;;;;;;5034374;28;20160;-69
2022/04/28 01:49:49;;;;;;;1.58;1.13;;;18.70;64.80;;;;;;5032848;28;20031;-69
2022/04/28 01:54:59;;;;;;;0.70;0.70;;;18.70;64.80;;;;;;5033887;28;20033;-69
2022/04/28 01:57:29;;;;;;;1.20;1.00;;;18.70;64.90;;;;;;5033657;28;20025;-69
2022/04/28 01:59:56;;;;;;;0.82;0.75;;;18.70;64.90;;;;;;5033043;28;20492;-69
2022/04/28 02:02:22;;;;;;;1.50;1.00;;;18.70;64.90;;;;;;5032761;28;20032;-69
2022/04/28 02:04:47;;;;;;;3.05;1.30;;;18.70;64.90;;;;;;5032751;28;20199;-69
2022/04/28 02:07:13;;;;;;;1.38;0.98;;;18.70;64.90;;;;;;5033919;28;20037;-69
2022/04/28 02:09:42;;;;;;;0.98;0.98;;;18.70;64.90;;;;;;5032446;28;20021;-69
2022/04/28 02:12:09;;;;;;;3.08;1.00;;;18.70;65.00;;;;;;5032298;28;20052;-69
2022/04/28 02:14:35;;;;;;;2.08;1.00;;;18.70;65.00;;;;;;5032591;28;20021;-69
2022/04/28 02:17:01;;;;;;;1.58;1.08;;;18.70;65.10;;;;;;5032383;28;20072;-69
2022/04/28 02:19:27;;;;;;;1.90;1.05;;;18.70;65.10;;;;;;5033771;28;20496;-69
2022/04/28 02:21:52;;;;;;;1.13;0.90;;;18.70;66.10;;;;;;5032246;28;20388;-69
2022/04/28 02:24:18;;;;;;;1.50;0.75;;;18.70;65.10;;;;;;5032336;28;20431;-69
2022/04/28 02:26:44;;;;;;;2.22;0.98;;;18.70;65.10;;;;;;5033472;28;20033;-69
2022/04/28 02:29:09;;;;;;;1.55;1.00;;;18.70;65.10;;;;;;5031958;28;20029;-69
2022/04/28 02:31:35;;;;;;;0.80;0.80;;;18.70;65.10;;;;;;5033622;28;20025;-69
2022/04/28 02:34:00;;;;;;;1.40;0.95;;;18.70;65.10;;;;;;5033165;28;20014;-69
2022/04/28 02:36:26;;;;;;;1.40;0.98;;;18.70;65.20;;;;;;5033373;28;20033;-69
2022/04/28 02:38:52;;;;;;;1.00;1.00;;;18.70;65.20;;;;;;5033255;28;20399;-69
2022/04/28 02:41:21;;;;;;;0.88;0.88;;;18.70;65.20;;;;;;5032699;28;20435;-69
2022/04/28 02:43:50;;;;;;;1.13;0.93;;;18.70;65.30;;;;;;5033213;28;20072;-69
2022/04/28 02:46:15;;;;;;;1.67;0.90;;;18.70;65.20;;;;;;5031676;28;20025;-69
2022/04/28 02:48:41;;;;;;;1.02;0.95;;;18.70;65.30;;;;;;5015692;28;20018;-70
2022/04/28 02:51:07;;;;;;;0.93;0.80;;;18.70;65.40;;;;;;5032910;28;20377;-69
2022/04/28 02:53:33;;;;;;;1.70;0.88;;;18.70;65.30;;;;;;5032694;28;20022;-69
2022/04/28 02:55:59;;;;;;;2.65;1.20;;;18.70;65.40;;;;;;5031602;28;20018;-69
2022/04/28 02:58:25;;;;;;;1.17;0.88;;;18.70;65.40;;;;;;5032849;28;20021;-69
2022/04/28 03:00:50;;;;;;;1.67;1.17;;;18.70;65.40;;;;;;5033034;28;20022;-69
2022/04/28 03:03:16;;;;;;;0.75;0.75;;;18.70;65.40;;;;;;5032838;28;20094;-69
2022/04/28 03:11:11;;;;;;;3.20;1.25;;;18.70;65.50;;;;;;5031278;28;20049;-69
2022/04/28 03:13:37;;;;;;;2.40;1.00;;;18.70;65.50;;;;;;5032532;28;20396;-69
2022/04/28 03:16:03;;;;;;;2.20;1.17;;;18.60;65.50;;;;;;5031691;28;20021;-69
2022/04/28 03:18:28;;;;;;;2.58;0.90;;;18.60;65.50;;;;;;5032571;28;20095;-69
2022/04/28 03:20:54;;;;;;;2.20;1.10;;;18.70;65.50;;;;;;5032558;28;20021;-66
2022/04/28 03:23:21;;;;;;;1.48;1.00;;;18.70;65.50;;;;;;5030702;28;20439;-66
2022/04/28 03:25:46;;;;;;;2.13;0.98;;;18.60;65.60;;;;;;5031363;28;20155;-66
2022/04/28 03:28:12;;;;;;;2.67;1.20;;;18.60;65.60;;;;;;5014898;28;20100;-66
2022/04/28 03:30:38;;;;;;;2.25;1.02;;;18.60;65.70;;;;;;5032496;28;20032;-66
2022/04/28 03:33:03;;;;;;;0.93;0.90;;;18.60;65.60;;;;;;5032504;28;20025;-66
2022/04/28 03:35:29;;;;;;;0.90;0.82;;;18.70;65.70;;;;;;5032280;28;20033;-66
2022/04/28 03:37:54;;;;;;;0.90;0.80;;;18.60;65.60;;;;;;5031138;28;20018;-66
2022/04/28 03:40:20;;;;;;;1.65;1.02;;;18.60;65.60;;;;;;5030875;28;20053;-66
2022/04/28 03:42:47;;;;;;;1.23;0.98;;;18.60;65.70;;;;;;5032393;28;20032;-66
2022/04/28 03:45:13;;;;;;;2.33;1.02;;;18.70;65.80;;;;;;5014605;28;20403;-66
2022/04/28 03:47:39;;;;;;;1.08;0.85;;;18.60;65.80;;;;;;5032109;28;20484;-66
2022/04/28 03:50:05;;;;;;;1.50;0.85;;;18.60;65.70;;;;;;5032145;28;20033;-66
2022/04/28 03:52:31;;;;;;;1.00;0.90;;;18.60;65.70;;;;;;5030750;28;20108;-66
2022/04/28 03:54:56;;;;;;;2.15;0.98;;;18.60;65.80;;;;;;5031957;28;20072;-66
2022/04/28 03:57:22;;;;;;;0.80;0.80;;;18.60;65.80;;;;;;5030839;28;20053;-66
2022/04/28 03:59:48;;;;;;;1.25;0.93;;;18.60;65.80;;;;;;5031966;28;20108;-66
2022/04/28 04:02:13;;;;;;;1.05;0.90;;;18.60;65.90;;;;;;5030862;28;20030;-66
2022/04/28 04:04:39;;;;;;;1.75;0.95;;;18.60;65.90;;;;;;5032087;28;20032;-66
2022/04/28 04:07:05;;;;;;;0.93;0.90;;;18.60;65.90;;;;;;5030568;28;20653;-66
2022/04/28 04:09:31;;;;;;;1.05;1.00;;;18.60;66.00;;;;;;5031934;28;20041;-66
2022/04/28 04:11:56;;;;;;;1.98;1.02;;;18.60;65.90;;;;;;5031889;28;20057;-66
2022/04/28 04:14:22;;;;;;;3.63;1.27;;;18.60;66.00;;;;;;5030570;28;20550;-66
2022/04/28 04:16:48;;;;;;;1.10;1.00;;;18.60;66.00;;;;;;5032045;28;20464;-66
2022/04/28 04:19:14;;;;;;;0.85;0.85;;;18.60;66.00;;;;;;5033610;28;20022;-66
2022/04/28 04:21:39;;;;;;;1.05;0.70;;;18.60;66.00;;;;;;5035598;28;20038;-66
2022/04/28 04:24:06;;;;;;;1.25;0.90;;;18.60;66.00;;;;;;5034642;28;20494;-66
2022/04/28 04:26:31;;;;;;;1.20;1.08;;;18.60;66.10;;;;;;5035623;28;20056;-66
2022/04/28 04:28:57;;;;;;;1.50;0.75;;;18.60;66.10;;;;;;5035646;28;20407;-66
2022/04/28 04:34:06;;;;;;;2.03;1.08;;;18.60;66.10;;;;;;5035680;28;20506;-66
2022/04/28 04:36:32;;;;;;;1.38;0.80;;;18.60;66.10;;;;;;5035291;28;20504;-66
2022/04/28 04:38:58;;;;;;;0.93;0.80;;;18.60;66.20;;;;;;5035635;28;20428;-66
2022/04/28 04:41:23;;;;;;;0.75;0.70;;;18.60;66.20;;;;;;5034046;28;20519;-66
2022/04/28 04:43:49;;;;;;;2.05;0.88;;;18.60;66.20;;;;;;5017977;28;20173;-66
2022/04/28 04:46:15;;;;;;;0.88;0.88;;;18.60;66.20;;;;;;5035289;28;20070;-66
2022/04/28 04:48:40;;;;;;;1.40;0.90;;;18.60;66.20;;;;;;5035797;28;20147;-66
2022/04/28 04:51:06;;;;;;;1.98;1.23;;;18.60;66.20;;;;;;5034993;28;20040;-66
2022/04/28 04:53:32;;;;;;;1.42;0.98;;;18.60;66.20;;;;;;5033943;28;20025;-66
2022/04/28 04:55:57;;;;;;;1.45;1.00;;;18.60;66.30;;;;;;5035300;28;20025;-66
2022/04/28 04:58:23;;;;;;;1.02;0.88;;;18.60;66.30;;;;;;5027156;28;20377;-66
2022/04/28 05:00:49;;;;;;;1.02;0.75;;;18.60;66.30;;;;;;5021895;28;20423;-66
2022/04/28 05:03:14;;;;;;;1.33;0.90;;;18.60;66.30;;;;;;5015587;28;20032;-66
2022/04/28 05:05:41;;;;;;;2.60;1.20;;;18.60;66.30;;;;;;5014337;28;20041;-66
2022/04/28 05:08:07;;;;;;;1.65;0.95;;;18.60;66.30;;;;;;5015723;28;20064;-66
2022/04/28 05:10:33;;;;;;;2.20;1.00;;;18.60;66.30;;;;;;5017626;28;20030;-66
2022/04/28 05:12:58;;;;;;;0.95;0.85;;;18.60;66.30;;;;;;5034111;28;20036;-66
2022/04/28 05:15:24;;;;;;;1.60;1.00;;;18.60;66.30;;;;;;5035206;28;20056;-66
2022/04/28 05:17:50;;;;;;;1.15;0.95;;;18.60;66.30;;;;;;5035281;28;20025;-66
2022/04/28 05:20:15;;;;;;;2.58;0.82;;;18.60;66.30;;;;;;5035085;28;20025;-66
2022/04/28 05:22:41;;;;;;;1.17;1.00;;;18.60;66.30;;;;;;5035380;28;20036;-66
2022/04/28 05:25:07;;;;;;;2.42;0.90;;;18.60;66.40;;;;;;5035348;28;20029;-66
2022/04/28 05:27:33;;;;;;;2.15;0.70;;;18.60;66.40;;;;;;5035282;28;20127;-66
2022/04/28 05:29:58;;;;;;;1.20;1.00;;;18.60;66.40;;;;;;5034976;28;20212;-66
2022/04/28 05:32:24;;;;;;;1.60;1.13;;;18.60;66.40;;;;;;5034652;28;20392;-66
2022/04/28 05:34:49;;;;;;;2.10;0.95;;;18.60;66.40;;;;;;5034859;28;20099;-66
2022/04/28 05:37:15;;;;;;;1.58;0.70;;;18.60;66.50;;;;;;5034994;28;20148;-66
2022/04/28 05:39:41;;;;;;;1.42;1.00;;;18.60;66.50;;;;;;5017157;28;20029;-66
2022/04/28 05:42:07;;;;;;;3.67;1.33;;;18.60;66.50;;;;;;5034013;28;20048;-66
2022/04/28 05:47:19;;;;;;;1.40;1.30;;;18.60;66.50;;;;;;5034870;28;20044;-66
2022/04/28 05:49:45;;;;;;;1.20;1.08;;;18.60;66.60;;;;;;5033549;28;20029;-66
2022/04/28 05:52:11;;;;;;;1.10;0.90;;;18.60;66.60;;;;;;5017259;28;20464;-66
2022/04/28 05:54:36;;;;;;;1.20;1.00;;;18.60;66.60;;;;;;5034747;28;20033;-66
2022/04/28 05:57:03;;;;;;;2.72;1.30;;;18.60;66.60;;;;;;5034506;28;20059;-66
2022/04/28 05:59:28;;;;;;;2.13;0.90;;;18.60;66.60;;;;;;5033230;28;20049;-66
2022/04/28 06:01:54;;;;;;;1.52;0.90;;;18.60;66.60;;;;;;5033454;28;20477;-66
2022/04/28 06:04:20;;;;;;;1.45;0.88;;;18.60;66.60;;;;;;5034449;28;20022;-66
2022/04/28 06:06:45;;;;;;;3.70;0.90;;;18.60;67.60;;;;;;5033201;28;20043;-66
2022/04/28 06:09:11;;;;;;;4.45;1.60;;;18.50;66.70;;;;;;5034366;28;20079;-66
2022/04/28 06:11:37;;;;;;;3.63;1.83;;;18.50;66.40;;;;;;5034170;28;20075;-66
2022/04/28 06:14:03;;;;;;;4.15;1.70;;;18.50;66.10;;;;;;5034596;28;20403;-66
2022/04/28 06:16:28;;;;;;;3.78;1.83;;;18.40;65.90;;;;;;5034177;28;20535;-66
2022/04/28 06:18:54;;;;;;;4.10;1.80;;;18.30;65.80;;;;;;5034163;28;20018;-66
2022/04/28 06:21:19;;;;;;;3.25;2.15;;;18.30;65.80;;;;;;5034156;28;20079;-66
2022/04/28 06:23:45;;;;;;;3.03;1.95;;;18.30;65.80;;;;;;5034147;28;20075;-66
2022/04/28 06:26:11;;;;;;;3.80;2.38;;;18.30;65.80;;;;;;5034168;28;20053;-66
2022/04/28 06:28:37;;;;;;;3.70;2.28;;;18.30;65.70;;;;;;5033767;28;20434;-66
2022/04/28 06:31:02;;;;;;;5.47;2.03;;;18.30;65.70;;;;;;5032864;28;20159;-66
2022/04/28 06:33:28;;;;;;;4.82;2.10;;;18.20;65.60;;;;;;5032414;28;20021;-66
2022/04/28 06:35:55;;;;;;;6.80;2.95;;;18.20;65.50;;;;;;5042284;28;20063;-66
2022/04/28 06:38:21;;;;;;;4.05;2.25;;;18.20;65.50;;;;;;5051732;28;20013;-66
2022/04/28 06:40:46;;;;;;;6.07;2.55;;;18.20;65.50;;;;;;5038100;28;20182;-66
2022/04/28 06:43:12;;;;;;;4.55;2.58;;;18.20;65.40;;;;;;5031121;28;20025;-66
2022/04/28 06:46:11;;;;;;;2.85;1.90;;;18.20;65.40;;;;;;5031805;28;20029;-67
2022/04/28 06:48:24;;;;;;;8.32;2.85;;;18.20;65.40;;;;;;5032335;28;20492;-65
2022/04/28 06:50:49;;;;;;;11.15;3.65;;;18.20;65.30;;;;;;5031378;28;20041;-65
2022/04/28 06:53:15;;;;;;;15.32;4.53;;;18.20;65.30;;;;;;5031723;28;20492;-65
2022/04/28 06:55:41;;;;;;;16.98;4.28;;;18.10;65.20;;;;;;5032200;28;20107;-65
2022/04/28 06:58:06;;;;;;;11.40;4.03;;;18.20;65.20;;;;;;5031922;28;20156;-65
2022/04/28 07:00:32;;;;;;;10.60;3.33;;;18.20;65.20;;;;;;5031499;28;20108;-65
2022/04/28 07:02:57;;;;;;;9.23;3.30;;;18.20;65.20;;;;;;5032209;28;20035;-65
2022/04/28 07:05:23;;;;;;;10.70;3.75;;;18.10;65.10;;;;;;5032376;28;20403;-65
2022/04/28 07:07:50;;;;;;;7.18;3.10;;;18.10;65.10;;;;;;5032809;28;20025;-65
2022/04/28 07:10:15;;;;;;;14.02;4.35;;;18.10;65.10;;;;;;5032457;28;20026;-65
2022/04/28 07:12:41;;;;;;;7.95;3.78;;;18.10;65.00;;;;;;5032605;28;20022;-65
2022/04/28 07:15:07;;;;;;;7.40;3.70;;;18.10;65.00;;;;;;5030822;28;20028;-65
2022/04/28 07:17:33;;;;;;;10.07;3.80;;;18.10;65.00;;;;;;5032220;28;20060;-65
2022/04/28 07:19:58;;;;;;;12.68;3.63;;;18.10;65.00;;;;;;5031587;28;20104;-65
2022/04/28 07:22:24;;;;;;;10.40;3.65;;;18.10;64.90;;;;;;5032245;28;20480;-65
2022/04/28 07:24:50;;;;;;;9.63;3.88;;;18.10;65.00;;;;;;5032484;28;20064;-65
2022/04/28 07:27:15;;;;;;;12.10;3.88;;;18.10;64.90;;;;;;5031334;28;20029;-65
2022/04/28 07:29:41;;;;;;;12.32;4.20;;;18.10;64.90;;;;;;5031022;28;20029;-65
2022/04/28 07:32:07;;;;;;;11.45;3.80;;;18.10;64.80;;;;;;5032332;28;20056;-65
2022/04/28 07:34:33;;;;;;;9.98;4.38;;;18.10;64.80;;;;;;5031026;28;20021;-65
2022/04/28 07:36:58;;;;;;;13.27;4.25;;;18.10;64.80;;;;;;5032266;28;20054;-65
2022/04/28 07:39:24;;;;;;;9.68;4.03;;;18.00;64.70;;;;;;5032448;28;20036;-65
2022/04/28 07:41:50;;;;;;;17.92;4.93;;;18.00;64.70;;;;;;5032188;28;20049;-65
2022/04/28 07:44:15;;;;;;;12.68;4.03;;;18.00;64.70;;;;;;5032216;28;20021;-65
2022/04/28 07:46:41;;;;;;;10.88;3.15;;;18.00;64.70;;;;;;5032042;28;20032;-65
2022/04/28 07:49:07;;;;;;;13.48;3.95;;;18.00;64.60;;;;;;5030943;28;20036;-65
2022/04/28 07:51:32;;;;;;;11.10;3.80;;;18.00;64.60;;;;;;5032017;28;20514;-65
2022/04/28 07:53:58;;;;;;;9.38;3.85;;;17.90;64.50;;;;;;5034778;28;20139;-65
2022/04/28 07:56:24;;;;;;;12.32;3.88;;;18.00;64.60;;;;;;5037366;28;20516;-65
2022/04/28 07:58:49;;;;;;;11.35;4.63;;;18.00;64.60;;;;;;5038447;28;20021;-65
2022/04/28 08:01:15;;;;;;;8.07;4.00;;;18.00;64.50;;;;;;5038767;28;20037;-66
2022/04/28 08:03:41;;;;;;;10.85;4.25;;;17.90;64.40;;;;;;5038550;28;20108;-65
2022/04/28 08:06:11;;;;;;;9.30;3.60;;;17.90;64.50;;;;;;5037534;28;20022;-65
2022/04/28 08:08:36;;;;;;;10.15;3.70;;;17.90;64.40;;;;;;5038567;28;20032;-65
2022/04/28 08:11:03;;;;;;;8.95;3.85;;;17.90;64.40;;;;;;5038708;28;20029;-65
2022/04/28 08:13:29;;;;;;;13.07;4.03;;;17.90;64.50;;;;;;5038301;28;20021;-65
2022/04/28 08:15:55;;;;;;;7.07;3.90;;;17.90;64.40;;;;;;5037549;28;20094;-65
2022/04/28 08:18:21;;;;;;;9.48;3.33;;;17.90;64.40;;;;;;5038631;28;20479;-65
2022/04/28 08:20:46;;;;;;;6.07;3.55;;;17.90;64.40;;;;;;5038496;28;20028;-65
2022/04/28 08:23:12;;;;;;;6.93;3.67;;;17.90;64.40;;;;;;5037260;28;20033;-65
2022/04/28 08:25:38;;;;;;;8.65;3.67;;;17.90;64.40;;;;;;5038426;28;20033;-65
2022/04/28 08:28:04;;;;;;;8.20;3.72;;;17.90;64.30;;;;;;5037172;28;20017;-65
2022/04/28 08:30:30;;;;;;;6.22;3.65;;;17.90;64.30;;;;;;5038385;28;20139;-65
2022/04/28 08:32:56;;;;;;;5.90;3.70;;;17.90;64.40;;;;;;5037322;28;20109;-65
2022/04/28 08:35:21;;;;;;;6.80;3.78;;;17.90;64.30;;;;;;5038448;28;20029;-65
2022/04/28 08:37:47;;;;;;;7.20;3.60;;;17.90;64.30;;;;;;5037021;28;20530;-65
2022/04/28 08:40:12;;;;;;;8.38;3.80;;;17.90;64.30;;;;;;5037052;28;20054;-65
2022/04/28 08:42:38;;;;;;;7.03;3.35;;;17.90;64.20;;;;;;5038082;28;20029;-65
2022/04/28 08:45:04;;;;;;;9.15;3.72;;;17.80;64.20;;;;;;5020699;28;20204;-65
2022/04/28 08:47:30;;;;;;;5.22;3.42;;;17.90;64.20;;;;;;5038294;28;20025;-65
2022/04/28 08:49:56;;;;;;;7.00;3.60;;;17.80;64.20;;;;;;5020639;28;20025;-65
2022/04/28 08:52:22;;;;;;;6.97;3.42;;;17.80;64.20;;;;;;5020570;28;20029;-65
2022/04/28 08:54:47;;;;;;;6.40;3.28;;;17.80;64.10;;;;;;5020399;28;20484;-65
2022/04/28 08:57:13;;;;;;;7.25;3.55;;;17.90;64.20;;;;;;5038108;28;20026;-65
2022/04/28 08:59:39;;;;;;;7.90;3.80;;;17.80;64.10;;;;;;5036723;28;20060;-65
2022/04/28 09:02:05;;;;;;;5.88;3.75;;;17.80;64.10;;;;;;5038212;28;20029;-65
2022/04/28 09:04:31;;;;;;;8.32;3.78;;;17.80;64.10;;;;;;5037843;28;20025;-65
2022/04/28 09:06:57;;;;;;;9.13;3.90;;;17.80;64.00;;;;;;5034199;28;20056;-65
2022/04/28 09:09:24;;;;;;;8.52;3.83;;;17.80;64.10;;;;;;5033965;28;20022;-66
2022/04/28 09:11:50;;;;;;;7.50;4.05;;;17.80;64.00;;;;;;5033201;28;20533;-66
2022/04/28 09:14:20;;;;;;;5.70;3.50;;;17.80;64.00;;;;;;5017330;28;20408;-66
2022/04/28 09:16:59;;;;;;;7.15;3.42;;;17.80;64.00;;;;;;5033702;28;20025;-66
2022/04/28 09:19:30;;;;;;;6.32;3.67;;;17.80;63.90;;;;;;5034970;28;20025;-66
2022/04/28 09:21:57;;;;;;;5.85;3.60;;;17.80;64.00;;;;;;5034765;28;20041;-66
2022/04/28 09:24:24;;;;;;;6.15;3.40;;;17.80;64.10;;;;;;5033410;28;20392;-66
2022/04/28 09:26:51;;;;;;;7.00;3.80;;;17.80;64.00;;;;;;5016999;28;20392;-66
2022/04/28 09:29:17;;;;;;;5.53;3.10;;;17.80;64.00;;;;;;5033593;28;20022;-66
2022/04/28 09:31:44;;;;;;;6.07;3.60;;;17.80;64.00;;;;;;5016898;28;20025;-66
2022/04/28 09:34:18;;;;;;;4.95;3.38;;;17.80;64.00;;;;;;5033520;28;20025;-66
2022/04/28 09:36:44;;;;;;;6.55;3.80;;;17.80;63.90;;;;;;5033073;28;20373;-66
2022/04/28 09:42:31;;;;;;;7.88;3.70;;;17.80;63.70;;;;;;5034284;28;20067;-66
2022/04/28 09:44:58;;;;;;;6.78;3.45;;;17.70;64.00;;;;;;5019425;28;20404;-66
2022/04/28 09:47:25;;;;;;;6.38;3.42;;;17.70;64.00;;;;;;5033442;28;20025;-66
2022/04/28 09:49:55;;;;;;;6.18;3.38;;;17.70;64.00;;;;;;5034082;28;20036;-66
2022/04/28 09:52:31;;;;;;;5.13;3.22;;;17.70;63.90;;;;;;5033078;28;20028;-66
2022/04/28 09:55:00;;;;;;;5.25;3.33;;;17.80;63.90;;;;;;5033833;28;20041;-66
2022/04/28 09:57:26;;;;;;;6.82;3.78;;;17.70;63.90;;;;;;5032943;28;20518;-66
2022/04/28 09:59:56;;;;;;;7.93;4.13;;;17.70;64.00;;;;;;5032816;28;20025;-66
2022/04/28 10:02:23;;;;;;;9.25;3.70;;;17.70;63.90;;;;;;5033972;28;20496;-66
2022/04/28 10:04:49;;;;;;;8.45;3.85;;;17.70;63.90;;;;;;5032882;28;20049;-66
2022/04/28 10:07:15;;;;;;;5.05;3.55;;;17.70;63.80;;;;;;5032688;28;20083;-66
2022/04/28 10:09:42;;;;;;;5.53;3.45;;;17.70;63.80;;;;;;5033657;28;20022;-66
2022/04/28 10:12:09;;;;;;;5.40;3.13;;;17.70;63.80;;;;;;5032690;28;20022;-66
2022/04/28 10:14:39;;;;;;;6.60;3.55;;;17.70;63.90;;;;;;5032743;28;20105;-66
2022/04/28 10:17:04;;;;;;;7.30;3.60;;;17.70;63.80;;;;;;5032425;28;20384;-66
2022/04/28 10:19:35;;;;;;;7.38;3.50;;;17.70;63.80;;;;;;5015964;28;20210;-66
2022/04/28 10:22:07;;;;;;;6.60;3.78;;;17.70;63.80;;;;;;5032249;28;20472;-66
2022/04/28 10:33:10;;;;;;;5.85;3.75;;;17.70;63.70;;;;;;5032660;28;20024;-66
2022/04/28 10:35:42;;;;;;;5.47;3.22;;;17.60;63.90;;;;;;5033311;28;20017;-66
2022/04/28 10:38:12;;;;;;;5.68;2.97;;;17.60;63.80;;;;;;5033528;28;20527;-66
2022/04/28 10:40:42;;;;;;;5.78;3.28;;;17.60;63.80;;;;;;5032888;28;20046;-66
2022/04/28 10:43:38;;;;;;;5.05;3.47;;;17.70;63.80;;;;;;5015888;28;20084;-66
2022/04/28 10:46:04;;;;;;;4.38;3.38;;;17.70;63.60;;;;;;5027451;28;20492;-66
2022/04/28 10:48:34;;;;;;;4.68;3.45;;;17.60;63.80;;;;;;5033249;28;20040;-66
2022/04/28 10:51:01;;;;;;;5.97;3.60;;;17.60;63.70;;;;;;5031725;28;20044;-66
2022/04/28 10:53:27;;;;;;;7.82;3.00;;;17.60;63.70;;;;;;5032807;28;20018;-66
2022/04/28 10:55:53;;;;;;;6.15;3.03;;;17.60;63.70;;;;;;5032840;28;20117;-66
2022/04/28 10:58:27;;;;;;;5.25;3.53;;;17.70;63.80;;;;;;5033150;28;20403;-66
2022/04/28 11:00:57;;;;;;;4.72;3.30;;;17.70;63.60;;;;;;5031622;28;20056;-66
2022/04/28 11:03:51;;;;;;;3.95;3.42;;;17.60;63.70;;;;;;5031936;28;20033;-66
2022/04/28 11:06:34;;;;;;;5.65;3.53;;;17.70;63.50;;;;;;5031630;28;20101;-66
2022/04/28 11:09:02;;;;;;;6.15;3.40;;;17.70;63.70;;;;;;5031347;28;20025;-66
2022/04/28 11:11:44;;;;;;;4.80;2.90;;;17.60;63.70;;;;;;5032829;28;20018;-66
2022/04/28 11:14:10;;;;;;;6.20;3.20;;;17.60;63.70;;;;;;5031655;28;20076;-66
2022/04/28 11:16:36;;;;;;;6.45;3.72;;;17.60;63.70;;;;;;5031692;28;20488;-66
2022/04/28 11:19:02;;;;;;;5.53;3.60;;;17.60;63.60;;;;;;5032618;28;20026;-66
2022/04/28 11:21:28;;;;;;;3.85;3.28;;;17.60;63.60;;;;;;5031500;28;20041;-66
2022/04/28 11:23:54;;;;;;;6.43;3.33;;;17.60;63.60;;;;;;5031077;28;20026;-66
2022/04/28 11:26:20;;;;;;;6.55;3.25;;;17.60;63.60;;;;;;5014850;28;20037;-66
2022/04/28 11:28:46;;;;;;;4.72;3.22;;;17.60;63.60;;;;;;5014369;28;20029;-66
2022/04/28 11:31:18;;;;;;;4.75;3.55;;;17.60;63.60;;;;;;5031317;28;20105;-66
2022/04/28 11:33:45;;;;;;;4.95;3.17;;;17.60;63.50;;;;;;5031319;28;20071;-66
2022/04/28 11:36:25;;;;;;;6.28;3.25;;;17.60;63.60;;;;;;5031213;28;20025;-66
2022/04/28 11:39:01;;;;;;;5.60;3.53;;;17.70;63.50;;;;;;5032355;28;20021;-66
2022/04/28 11:41:35;;;;;;;6.03;3.42;;;17.60;63.50;;;;;;5032235;28;20052;-66
2022/04/28 11:44:08;;;;;;;6.22;3.47;;;17.60;63.50;;;;;;5032420;28;20025;-66
2022/04/28 11:46:50;;;;;;;6.85;3.60;;;17.60;63.60;;;;;;5032268;28;20014;-66
2022/04/28 11:49:20;;;;;;;5.38;3.45;;;17.60;63.60;;;;;;5031181;28;20053;-66
2022/04/28 11:51:46;;;;;;;4.10;3.08;;;17.60;63.60;;;;;;5031721;28;20050;-66
2022/04/28 11:54:23;;;;;;;5.60;3.40;;;17.50;63.50;;;;;;5030883;28;20443;-66
2022/04/28 11:56:49;;;;;;;7.40;3.97;;;17.60;63.50;;;;;;5032245;28;20021;-66
2022/04/28 11:59:14;;;;;;;3.55;3.05;;;17.60;63.60;;;;;;5030942;28;20467;-66
2022/04/28 12:01:40;;;;;;;4.10;3.33;;;17.60;63.60;;;;;;5032048;28;20064;-66
2022/04/28 12:04:06;;;;;;;5.50;3.53;;;17.60;63.60;;;;;;5030978;28;20021;-66
2022/04/28 12:06:31;;;;;;;5.57;3.45;;;17.60;63.60;;;;;;5031905;28;20404;-66
2022/04/28 12:14:22;;;;;;;5.03;3.50;;;17.60;63.50;;;;;;5030804;28;20484;-66
2022/04/28 12:14:32;;;;;;;4.80;3.50;;;17.60;63.50;;;;;;5031131;28;20095;-66
2022/04/28 12:19:49;;;;;;;5.25;3.25;;;17.60;63.50;;;;;;5031684;28;20052;-66
2022/04/28 12:22:26;;;;;;;6.82;3.70;;;17.60;63.50;;;;;;5030615;28;20049;-66
2022/04/28 12:24:52;;;;;;;5.80;3.60;;;17.60;63.50;;;;;;5030751;28;20028;-66
2022/04/28 12:27:17;;;;;;;3.65;3.30;;;17.50;63.50;;;;;;5030601;28;20026;-66
2022/04/28 12:29:54;;;;;;;7.50;3.55;;;17.50;63.50;;;;;;5031703;28;20027;-66
2022/04/28 12:32:22;;;;;;;5.60;3.80;;;17.60;63.50;;;;;;5031858;28;20053;-66
2022/04/28 12:34:58;;;;;;;6.07;3.65;;;17.60;63.50;;;;;;5031750;28;20372;-66
2022/04/28 12:37:27;;;;;;;4.20;3.55;;;17.60;63.50;;;;;;5030692;28;20042;-66
2022/04/28 12:40:00;;;;;;;4.82;3.38;;;17.50;63.50;;;;;;5014165;28;20041;-66
2022/04/28 12:42:45;;;;;;;5.90;3.40;;;17.60;63.50;;;;;;5017832;28;20036;-66
2022/04/28 12:45:11;;;;;;;5.75;3.28;;;17.60;63.30;;;;;;5035238;28;20502;-66
2022/04/28 12:47:38;;;;;;;3.92;3.35;;;17.60;64.50;;;;;;5017732;28;20033;-66
2022/04/28 12:50:20;;;;;;;7.07;3.45;;;17.60;63.50;;;;;;5017594;28;20075;-66
2022/04/28 12:52:46;;;;;;;4.00;3.00;;;17.60;63.30;;;;;;5018047;28;20119;-66
2022/04/28 12:55:12;;;;;;;4.57;3.20;;;17.50;63.40;;;;;;5033808;28;20519;-66
2022/04/28 12:57:38;;;;;;;5.50;3.08;;;17.50;63.50;;;;;;5034146;28;20026;-66
2022/04/28 13:00:05;;;;;;;5.97;3.75;;;17.60;63.50;;;;;;5035032;28;20408;-66
2022/04/28 13:02:31;;;;;;;4.78;3.65;;;17.60;63.40;;;;;;5035089;28;20083;-66
2022/04/28 13:05:14;;;;;;;6.40;3.50;;;17.60;63.40;;;;;;5034884;28;20053;-66
2022/04/28 13:07:40;;;;;;;6.72;4.25;;;17.60;63.20;;;;;;5033755;28;20025;-66
2022/04/28 13:10:07;;;;;;;6.78;4.20;;;17.60;63.40;;;;;;5033637;28;20404;-66
2022/04/28 13:12:33;;;;;;;6.50;3.85;;;17.60;63.50;;;;;;5033958;28;20025;-66
2022/04/28 13:15:01;;;;;;;6.30;3.58;;;17.60;63.40;;;;;;5033551;28;20017;-66
2022/04/28 13:17:27;;;;;;;5.53;4.22;;;17.60;63.30;;;;;;5035005;28;20124;-66
2022/04/28 13:19:53;;;;;;;6.72;4.20;;;17.60;63.30;;;;;;5034728;28;20412;-66